sensor_id;sensor_type;location;lat;lon;timestamp;P1;durP1;ratioP1;P2;durP2;ratioP2
55368;SDS011;41247;49.736;8.752;2023-12-22T00:00:57;2.70;;;0.20;;
55368;SDS011;41247;49.736;8.752;2023-12-22T00:09:16;2.38;;;0.50;;
55368;SDS011;41247;49.736;8.752;2023-12-22T00:28:02;3.57;;;0.40;;
55368;SDS011;41247;49.736;8.752;2023-12-22T00:31:46;0.40;;;0.30;;
55368;SDS011;41247;49.736;8.752;2023-12-22T00:35:26;0.52;;;0.40;;
55368;SDS011;41247;49.736;8.752;2023-12-22T00:39:09;3.20;;;0.57;;
55368;SDS011;41247;49.736;8.752;2023-12-22T00:42:55;0.50;;;0.40;;
55368;SDS011;41247;49.736;8.752;2023-12-22T00:46:36;3.47;;;0.30;;
55368;SDS011;41247;49.736;8.752;2023-12-22T00:50:18;3.35;;;0.30;;
55368;SDS011;41247;49.736;8.752;2023-12-22T00:53:59;1.40;;;0.40;;
55368;SDS011;41247;49.736;8.752;2023-12-22T00:57:43;2.67;;;0.40;;
55368;SDS011;41247;49.736;8.752;2023-12-22T01:01:23;0.52;;;0.20;;
55368;SDS011;41247;49.736;8.752;2023-12-22T01:05:06;0.68;;;0.38;;
55368;SDS011;41247;49.736;8.752;2023-12-22T01:08:47;1.75;;;0.60;;
55368;SDS011;41247;49.736;8.752;2023-12-22T01:12:37;4.55;;;0.40;;
55368;SDS011;41247;49.736;8.752;2023-12-22T01:16:18;2.65;;;0.60;;
55368;SDS011;41247;49.736;8.752;2023-12-22T01:20:01;2.67;;;0.30;;
55368;SDS011;41247;49.736;8.752;2023-12-22T01:23:42;1.52;;;0.60;;
55368;SDS011;41247;49.736;8.752;2023-12-22T01:27:22;2.25;;;0.50;;
55368;SDS011;41247;49.736;8.752;2023-12-22T01:31:06;1.60;;;0.60;;
55368;SDS011;41247;49.736;8.752;2023-12-22T01:34:46;0.95;;;0.70;;
55368;SDS011;41247;49.736;8.752;2023-12-22T01:38:29;3.88;;;0.52;;
55368;SDS011;41247;49.736;8.752;2023-12-22T01:42:19;2.55;;;0.70;;
55368;SDS011;41247;49.736;8.752;2023-12-22T01:46:24;3.50;;;0.80;;
55368;SDS011;41247;49.736;8.752;2023-12-22T01:50:31;1.92;;;0.60;;
55368;SDS011;41247;49.736;8.752;2023-12-22T01:54:14;2.67;;;0.60;;
55368;SDS011;41247;49.736;8.752;2023-12-22T01:57:55;2.80;;;0.50;;
55368;SDS011;41247;49.736;8.752;2023-12-22T02:01:36;7.00;;;0.73;;
55368;SDS011;41247;49.736;8.752;2023-12-22T02:05:22;2.38;;;0.32;;
55368;SDS011;41247;49.736;8.752;2023-12-22T02:09:42;3.38;;;0.50;;
55368;SDS011;41247;49.736;8.752;2023-12-22T02:13:28;3.97;;;0.80;;
55368;SDS011;41247;49.736;8.752;2023-12-22T02:17:20;2.40;;;0.80;;
55368;SDS011;41247;49.736;8.752;2023-12-22T02:21:27;5.65;;;0.63;;
55368;SDS011;41247;49.736;8.752;2023-12-22T02:25:08;2.92;;;0.82;;
55368;SDS011;41247;49.736;8.752;2023-12-22T02:28:48;0.95;;;0.60;;
55368;SDS011;41247;49.736;8.752;2023-12-22T02:32:31;5.40;;;0.68;;
55368;SDS011;41247;49.736;8.752;2023-12-22T02:36:24;3.95;;;0.60;;
55368;SDS011;41247;49.736;8.752;2023-12-22T02:40:09;2.45;;;0.57;;
55368;SDS011;41247;49.736;8.752;2023-12-22T02:43:51;4.18;;;0.85;;
55368;SDS011;41247;49.736;8.752;2023-12-22T02:47:38;3.50;;;0.70;;
55368;SDS011;41247;49.736;8.752;2023-12-22T02:51:35;2.70;;;0.80;;
55368;SDS011;41247;49.736;8.752;2023-12-22T02:55:23;1.90;;;0.60;;
55368;SDS011;41247;49.736;8.752;2023-12-22T03:03:31;4.10;;;0.60;;
55368;SDS011;41247;49.736;8.752;2023-12-22T03:11:55;0.98;;;0.40;;
55368;SDS011;41247;49.736;8.752;2023-12-22T03:15:54;2.50;;;0.70;;
55368;SDS011;41247;49.736;8.752;2023-12-22T03:19:37;2.28;;;0.70;;
55368;SDS011;41247;49.736;8.752;2023-12-22T03:23:26;5.75;;;0.98;;
55368;SDS011;41247;49.736;8.752;2023-12-22T03:27:18;6.07;;;0.95;;
55368;SDS011;41247;49.736;8.752;2023-12-22T03:34:53;4.18;;;0.82;;
55368;SDS011;41247;49.736;8.752;2023-12-22T03:39:03;5.22;;;1.23;;
55368;SDS011;41247;49.736;8.752;2023-12-22T03:42:49;5.47;;;0.98;;
55368;SDS011;41247;49.736;8.752;2023-12-22T03:46:33;9.03;;;1.10;;
55368;SDS011;41247;49.736;8.752;2023-12-22T03:50:22;8.15;;;1.05;;
55368;SDS011;41247;49.736;8.752;2023-12-22T03:58:51;4.13;;;0.98;;
55368;SDS011;41247;49.736;8.752;2023-12-22T04:16:27;7.38;;;0.93;;
55368;SDS011;41247;49.736;8.752;2023-12-22T04:20:48;6.10;;;0.95;;
55368;SDS011;41247;49.736;8.752;2023-12-22T04:24:49;5.55;;;0.77;;
55368;SDS011;41247;49.736;8.752;2023-12-22T04:28:53;8.85;;;0.80;;
55368;SDS011;41247;49.736;8.752;2023-12-22T04:32:56;5.83;;;0.90;;
55368;SDS011;41247;49.736;8.752;2023-12-22T04:36:48;4.00;;;0.63;;
55368;SDS011;41247;49.736;8.752;2023-12-22T04:40:42;7.57;;;1.10;;
55368;SDS011;41247;49.736;8.752;2023-12-22T04:44:48;1.25;;;0.60;;
55368;SDS011;41247;49.736;8.752;2023-12-22T04:48:43;3.60;;;0.60;;
55368;SDS011;41247;49.736;8.752;2023-12-22T04:52:24;4.03;;;0.40;;
55368;SDS011;41247;49.736;8.752;2023-12-22T04:56:07;1.63;;;0.35;;
55368;SDS011;41247;49.736;8.752;2023-12-22T04:59:57;3.13;;;0.50;;
55368;SDS011;41247;49.736;8.752;2023-12-22T05:03:43;9.68;;;3.42;;
55368;SDS011;41247;49.736;8.752;2023-12-22T05:07:33;19.13;;;4.60;;
55368;SDS011;41247;49.736;8.752;2023-12-22T05:11:35;5.60;;;1.55;;
55368;SDS011;41247;49.736;8.752;2023-12-22T05:32:37;8.90;;;1.10;;
55368;SDS011;41247;49.736;8.752;2023-12-22T07:55:52;12.10;;;1.90;;
55368;SDS011;41247;49.736;8.752;2023-12-22T07:59:40;9.45;;;1.45;;
55368;SDS011;41247;49.736;8.752;2023-12-22T08:03:34;8.63;;;1.55;;
55368;SDS011;41247;49.736;8.752;2023-12-22T08:07:15;15.90;;;1.60;;
55368;SDS011;41247;49.736;8.752;2023-12-22T08:10:56;8.23;;;1.52;;
55368;SDS011;41247;49.736;8.752;2023-12-22T08:14:36;10.70;;;1.73;;
55368;SDS011;41247;49.736;8.752;2023-12-22T08:18:17;6.53;;;1.55;;
55368;SDS011;41247;49.736;8.752;2023-12-22T08:22:00;7.83;;;1.20;;
55368;SDS011;41247;49.736;8.752;2023-12-22T08:25:41;7.13;;;1.40;;
55368;SDS011;41247;49.736;8.752;2023-12-22T08:29:27;7.25;;;1.63;;
55368;SDS011;41247;49.736;8.752;2023-12-22T08:33:08;6.55;;;1.25;;
55368;SDS011;41247;49.736;8.752;2023-12-22T08:36:52;5.05;;;1.13;;
55368;SDS011;41247;49.736;8.752;2023-12-22T08:40:33;6.70;;;1.65;;
55368;SDS011;41247;49.736;8.752;2023-12-22T08:44:14;7.00;;;1.08;;
55368;SDS011;41247;49.736;8.752;2023-12-22T08:48:15;4.07;;;1.20;;
55368;SDS011;41247;49.736;8.752;2023-12-22T08:52:11;8.23;;;1.70;;
55368;SDS011;41247;49.736;8.752;2023-12-22T08:59:45;5.30;;;1.10;;
55368;SDS011;41247;49.736;8.752;2023-12-22T09:03:52;4.07;;;0.90;;
55368;SDS011;41247;49.736;8.752;2023-12-22T09:07:33;2.72;;;1.00;;
55368;SDS011;41247;49.736;8.752;2023-12-22T09:11:16;4.55;;;0.90;;
55368;SDS011;41247;49.736;8.752;2023-12-22T09:14:58;7.00;;;1.27;;
55368;SDS011;41247;49.736;8.752;2023-12-22T11:13:10;23.70;;;3.67;;
55368;SDS011;41247;49.736;8.752;2023-12-22T11:17:02;19.58;;;3.13;;
55368;SDS011;41247;49.736;8.752;2023-12-22T11:20:43;29.40;;;3.45;;
55368;SDS011;41247;49.736;8.752;2023-12-22T11:24:26;19.63;;;2.58;;
55368;SDS011;41247;49.736;8.752;2023-12-22T11:28:09;23.10;;;3.30;;
55368;SDS011;41247;49.736;8.752;2023-12-22T11:31:54;24.05;;;3.25;;
55368;SDS011;41247;49.736;8.752;2023-12-22T11:35:35;25.63;;;3.15;;
55368;SDS011;41247;49.736;8.752;2023-12-22T11:39:17;29.30;;;3.30;;
55368;SDS011;41247;49.736;8.752;2023-12-22T11:42:57;26.08;;;2.92;;
55368;SDS011;41247;49.736;8.752;2023-12-22T11:46:40;23.45;;;3.97;;
55368;SDS011;41247;49.736;8.752;2023-12-22T11:50:27;27.13;;;3.78;;
55368;SDS011;41247;49.736;8.752;2023-12-22T11:58:35;21.95;;;3.47;;
55368;SDS011;41247;49.736;8.752;2023-12-22T12:02:32;21.83;;;2.97;;
55368;SDS011;41247;49.736;8.752;2023-12-22T12:06:39;24.48;;;3.78;;
55368;SDS011;41247;49.736;8.752;2023-12-22T12:29:42;19.63;;;2.78;;
55368;SDS011;41247;49.736;8.752;2023-12-22T12:33:25;22.90;;;3.35;;
55368;SDS011;41247;49.736;8.752;2023-12-22T12:37:09;18.77;;;3.72;;
55368;SDS011;41247;49.736;8.752;2023-12-22T12:45:08;22.50;;;3.63;;
55368;SDS011;41247;49.736;8.752;2023-12-22T12:49:10;19.40;;;3.17;;
55368;SDS011;41247;49.736;8.752;2023-12-22T12:52:58;17.25;;;3.00;;
55368;SDS011;41247;49.736;8.752;2023-12-22T12:56:45;19.88;;;2.78;;
55368;SDS011;41247;49.736;8.752;2023-12-22T13:00:32;16.80;;;2.40;;
55368;SDS011;41247;49.736;8.752;2023-12-22T13:04:13;9.00;;;1.98;;
55368;SDS011;41247;49.736;8.752;2023-12-22T13:12:00;12.18;;;1.20;;
55368;SDS011;41247;49.736;8.752;2023-12-22T13:15:47;5.23;;;0.97;;
55368;SDS011;41247;49.736;8.752;2023-12-22T13:19:48;2.53;;;0.80;;
55368;SDS011;41247;49.736;8.752;2023-12-22T13:23:33;5.13;;;1.10;;
55368;SDS011;41247;49.736;8.752;2023-12-22T13:27:20;5.05;;;0.88;;
55368;SDS011;41247;49.736;8.752;2023-12-22T13:31:22;2.80;;;0.80;;
55368;SDS011;41247;49.736;8.752;2023-12-22T13:35:09;4.95;;;0.82;;
55368;SDS011;41247;49.736;8.752;2023-12-22T13:39:14;4.63;;;0.88;;
55368;SDS011;41247;49.736;8.752;2023-12-22T14:17:10;0.82;;;0.50;;
55368;SDS011;41247;49.736;8.752;2023-12-22T14:22:01;3.65;;;0.90;;
55368;SDS011;41247;49.736;8.752;2023-12-22T14:26:57;3.30;;;0.80;;
55368;SDS011;41247;49.736;8.752;2023-12-22T14:31:06;3.60;;;1.48;;
55368;SDS011;41247;49.736;8.752;2023-12-22T14:35:06;6.75;;;1.95;;
55368;SDS011;41247;49.736;8.752;2023-12-22T14:38:47;4.65;;;1.70;;
55368;SDS011;41247;49.736;8.752;2023-12-22T14:42:28;2.15;;;1.20;;
55368;SDS011;41247;49.736;8.752;2023-12-22T14:46:08;7.55;;;1.80;;
55368;SDS011;41247;49.736;8.752;2023-12-22T14:49:49;3.13;;;0.90;;
55368;SDS011;41247;49.736;8.752;2023-12-22T14:53:29;2.88;;;1.33;;
55368;SDS011;41247;49.736;8.752;2023-12-22T14:57:10;1.60;;;1.00;;
55368;SDS011;41247;49.736;8.752;2023-12-22T15:00:51;2.97;;;0.82;;
55368;SDS011;41247;49.736;8.752;2023-12-22T15:04:32;2.95;;;1.20;;
55368;SDS011;41247;49.736;8.752;2023-12-22T15:08:12;7.35;;;1.58;;
55368;SDS011;41247;49.736;8.752;2023-12-22T15:11:53;5.47;;;1.10;;
55368;SDS011;41247;49.736;8.752;2023-12-22T15:15:33;3.55;;;0.90;;
55368;SDS011;41247;49.736;8.752;2023-12-22T15:19:14;0.65;;;0.50;;
55368;SDS011;41247;49.736;8.752;2023-12-22T15:22:55;1.52;;;0.50;;
55368;SDS011;41247;49.736;8.752;2023-12-22T15:26:35;0.98;;;0.70;;
55368;SDS011;41247;49.736;8.752;2023-12-22T15:30:16;0.90;;;0.30;;
55368;SDS011;41247;49.736;8.752;2023-12-22T15:33:57;1.02;;;0.60;;
55368;SDS011;41247;49.736;8.752;2023-12-22T15:37:38;1.75;;;0.77;;
55368;SDS011;41247;49.736;8.752;2023-12-22T15:41:18;1.27;;;0.43;;
55368;SDS011;41247;49.736;8.752;2023-12-22T15:44:59;1.45;;;0.50;;
55368;SDS011;41247;49.736;8.752;2023-12-22T15:48:39;1.13;;;0.30;;
55368;SDS011;41247;49.736;8.752;2023-12-22T15:52:20;0.93;;;0.32;;
55368;SDS011;41247;49.736;8.752;2023-12-22T15:56:04;3.22;;;0.38;;
55368;SDS011;41247;49.736;8.752;2023-12-22T15:59:46;2.28;;;0.50;;
55368;SDS011;41247;49.736;8.752;2023-12-22T16:03:26;0.50;;;0.40;;
55368;SDS011;41247;49.736;8.752;2023-12-22T16:07:07;0.88;;;0.68;;
55368;SDS011;41247;49.736;8.752;2023-12-22T16:10:48;1.85;;;0.60;;
55368;SDS011;41247;49.736;8.752;2023-12-22T16:15:07;1.05;;;0.50;;
55368;SDS011;41247;49.736;8.752;2023-12-22T16:19:04;0.82;;;0.50;;
55368;SDS011;41247;49.736;8.752;2023-12-22T16:22:52;5.28;;;1.52;;
55368;SDS011;41247;49.736;8.752;2023-12-22T16:26:35;3.85;;;1.95;;
55368;SDS011;41247;49.736;8.752;2023-12-22T16:30:16;0.98;;;0.60;;
55368;SDS011;41247;49.736;8.752;2023-12-22T16:33:57;1.20;;;0.45;;
55368;SDS011;41247;49.736;8.752;2023-12-22T16:37:37;3.67;;;1.20;;
55368;SDS011;41247;49.736;8.752;2023-12-22T16:41:18;1.42;;;0.70;;
55368;SDS011;41247;49.736;8.752;2023-12-22T16:44:59;1.23;;;0.47;;
55368;SDS011;41247;49.736;8.752;2023-12-22T16:48:39;1.45;;;0.73;;
55368;SDS011;41247;49.736;8.752;2023-12-22T16:52:20;0.75;;;0.60;;
55368;SDS011;41247;49.736;8.752;2023-12-22T16:56:02;0.63;;;0.45;;
55368;SDS011;41247;49.736;8.752;2023-12-22T16:59:43;1.03;;;0.63;;
55368;SDS011;41247;49.736;8.752;2023-12-22T17:03:24;1.30;;;0.60;;
55368;SDS011;41247;49.736;8.752;2023-12-22T17:07:05;1.20;;;0.43;;
55368;SDS011;41247;49.736;8.752;2023-12-22T17:10:45;1.15;;;0.40;;
55368;SDS011;41247;49.736;8.752;2023-12-22T17:14:26;1.52;;;0.43;;
55368;SDS011;41247;49.736;8.752;2023-12-22T17:18:06;1.55;;;0.35;;
55368;SDS011;41247;49.736;8.752;2023-12-22T17:21:47;2.28;;;0.90;;
55368;SDS011;41247;49.736;8.752;2023-12-22T17:25:27;2.50;;;0.68;;
55368;SDS011;41247;49.736;8.752;2023-12-22T17:29:08;2.72;;;1.00;;
55368;SDS011;41247;49.736;8.752;2023-12-22T17:32:49;2.03;;;1.05;;
55368;SDS011;41247;49.736;8.752;2023-12-22T17:36:29;1.67;;;0.60;;
55368;SDS011;41247;49.736;8.752;2023-12-22T17:40:10;1.23;;;0.60;;
55368;SDS011;41247;49.736;8.752;2023-12-22T17:43:50;0.77;;;0.60;;
55368;SDS011;41247;49.736;8.752;2023-12-22T17:47:31;0.70;;;0.43;;
55368;SDS011;41247;49.736;8.752;2023-12-22T17:51:12;1.00;;;0.65;;
55368;SDS011;41247;49.736;8.752;2023-12-22T17:54:52;2.45;;;0.93;;
55368;SDS011;41247;49.736;8.752;2023-12-22T17:58:33;1.25;;;0.82;;
55368;SDS011;41247;49.736;8.752;2023-12-22T18:02:13;4.55;;;1.30;;
55368;SDS011;41247;49.736;8.752;2023-12-22T18:05:54;8.02;;;1.77;;
55368;SDS011;41247;49.736;8.752;2023-12-22T18:09:37;2.38;;;0.52;;
55368;SDS011;41247;49.736;8.752;2023-12-22T18:13:18;2.92;;;1.17;;
55368;SDS011;41247;49.736;8.752;2023-12-22T18:16:59;4.20;;;1.60;;
55368;SDS011;41247;49.736;8.752;2023-12-22T18:20:39;4.75;;;2.10;;
55368;SDS011;41247;49.736;8.752;2023-12-22T18:24:20;3.90;;;0.90;;
55368;SDS011;41247;49.736;8.752;2023-12-22T18:28:00;2.53;;;1.05;;
55368;SDS011;41247;49.736;8.752;2023-12-22T18:31:41;1.85;;;0.70;;
55368;SDS011;41247;49.736;8.752;2023-12-22T18:35:21;6.43;;;1.40;;
55368;SDS011;41247;49.736;8.752;2023-12-22T18:39:03;2.38;;;1.08;;
55368;SDS011;41247;49.736;8.752;2023-12-22T18:42:44;2.10;;;1.10;;
55368;SDS011;41247;49.736;8.752;2023-12-22T18:46:25;1.95;;;0.80;;
55368;SDS011;41247;49.736;8.752;2023-12-22T18:50:05;4.82;;;1.10;;
55368;SDS011;41247;49.736;8.752;2023-12-22T18:53:46;1.83;;;0.95;;
55368;SDS011;41247;49.736;8.752;2023-12-22T18:57:28;3.85;;;1.13;;
55368;SDS011;41247;49.736;8.752;2023-12-22T19:01:13;2.13;;;1.38;;
55368;SDS011;41247;49.736;8.752;2023-12-22T19:04:53;2.05;;;1.52;;
55368;SDS011;41247;49.736;8.752;2023-12-22T19:08:35;1.77;;;1.00;;
55368;SDS011;41247;49.736;8.752;2023-12-22T19:12:15;2.17;;;1.67;;
55368;SDS011;41247;49.736;8.752;2023-12-22T19:15:56;5.40;;;1.00;;
55368;SDS011;41247;49.736;8.752;2023-12-22T19:19:36;6.47;;;1.73;;
55368;SDS011;41247;49.736;8.752;2023-12-22T19:23:17;1.75;;;1.10;;
55368;SDS011;41247;49.736;8.752;2023-12-22T19:26:58;3.80;;;1.65;;
55368;SDS011;41247;49.736;8.752;2023-12-22T19:30:44;2.70;;;1.48;;
55368;SDS011;41247;49.736;8.752;2023-12-22T19:34:30;2.72;;;1.50;;
55368;SDS011;41247;49.736;8.752;2023-12-22T19:38:11;3.78;;;1.25;;
55368;SDS011;41247;49.736;8.752;2023-12-22T19:41:59;3.03;;;1.20;;
55368;SDS011;41247;49.736;8.752;2023-12-22T19:45:57;3.65;;;1.58;;
55368;SDS011;41247;49.736;8.752;2023-12-22T19:49:45;3.92;;;1.20;;
55368;SDS011;41247;49.736;8.752;2023-12-22T19:53:48;2.17;;;1.30;;
55368;SDS011;41247;49.736;8.752;2023-12-22T19:57:34;1.50;;;1.30;;
55368;SDS011;41247;49.736;8.752;2023-12-22T20:01:43;2.80;;;1.67;;
55368;SDS011;41247;49.736;8.752;2023-12-22T20:05:24;4.10;;;2.20;;
55368;SDS011;41247;49.736;8.752;2023-12-22T20:09:04;3.55;;;1.90;;
55368;SDS011;41247;49.736;8.752;2023-12-22T20:12:45;3.08;;;1.70;;
55368;SDS011;41247;49.736;8.752;2023-12-22T20:16:25;1.60;;;1.00;;
55368;SDS011;41247;49.736;8.752;2023-12-22T20:20:06;1.85;;;1.40;;
55368;SDS011;41247;49.736;8.752;2023-12-22T20:23:47;1.25;;;0.98;;
55368;SDS011;41247;49.736;8.752;2023-12-22T20:27:28;3.25;;;0.95;;
55368;SDS011;41247;49.736;8.752;2023-12-22T20:31:09;2.15;;;0.77;;
55368;SDS011;41247;49.736;8.752;2023-12-22T20:34:49;2.75;;;0.68;;
55368;SDS011;41247;49.736;8.752;2023-12-22T20:38:30;2.00;;;0.70;;
55368;SDS011;41247;49.736;8.752;2023-12-22T20:42:10;1.38;;;0.80;;
55368;SDS011;41247;49.736;8.752;2023-12-22T20:45:51;3.55;;;0.80;;
55368;SDS011;41247;49.736;8.752;2023-12-22T20:49:31;2.28;;;1.00;;
55368;SDS011;41247;49.736;8.752;2023-12-22T20:53:12;1.65;;;0.73;;
55368;SDS011;41247;49.736;8.752;2023-12-22T20:56:53;2.10;;;0.70;;
55368;SDS011;41247;49.736;8.752;2023-12-22T21:00:33;1.20;;;0.70;;
55368;SDS011;41247;49.736;8.752;2023-12-22T21:04:14;2.58;;;0.80;;
55368;SDS011;41247;49.736;8.752;2023-12-22T21:07:55;2.00;;;0.85;;
55368;SDS011;41247;49.736;8.752;2023-12-22T21:11:35;1.85;;;0.57;;
55368;SDS011;41247;49.736;8.752;2023-12-22T21:15:16;2.53;;;0.93;;
55368;SDS011;41247;49.736;8.752;2023-12-22T21:18:56;2.42;;;0.88;;
55368;SDS011;41247;49.736;8.752;2023-12-22T21:22:37;2.47;;;0.85;;
55368;SDS011;41247;49.736;8.752;2023-12-22T21:26:18;4.18;;;1.23;;
55368;SDS011;41247;49.736;8.752;2023-12-22T21:30:00;7.57;;;1.85;;
55368;SDS011;41247;49.736;8.752;2023-12-22T21:33:41;6.05;;;2.03;;
55368;SDS011;41247;49.736;8.752;2023-12-22T21:37:21;4.18;;;1.33;;
55368;SDS011;41247;49.736;8.752;2023-12-22T21:41:02;2.60;;;1.02;;
55368;SDS011;41247;49.736;8.752;2023-12-22T21:44:43;4.90;;;1.10;;
55368;SDS011;41247;49.736;8.752;2023-12-22T21:48:23;1.92;;;0.80;;
55368;SDS011;41247;49.736;8.752;2023-12-22T21:52:04;4.97;;;0.82;;
55368;SDS011;41247;49.736;8.752;2023-12-22T21:55:45;4.03;;;0.98;;
55368;SDS011;41247;49.736;8.752;2023-12-22T21:59:26;2.92;;;0.70;;
55368;SDS011;41247;49.736;8.752;2023-12-22T22:03:06;2.13;;;1.00;;
55368;SDS011;41247;49.736;8.752;2023-12-22T22:06:47;3.90;;;0.82;;
55368;SDS011;41247;49.736;8.752;2023-12-22T22:10:27;3.55;;;0.90;;
55368;SDS011;41247;49.736;8.752;2023-12-22T22:14:08;3.38;;;0.75;;
55368;SDS011;41247;49.736;8.752;2023-12-22T22:17:48;2.97;;;0.82;;
55368;SDS011;41247;49.736;8.752;2023-12-22T22:21:29;2.30;;;0.47;;
55368;SDS011;41247;49.736;8.752;2023-12-22T22:25:10;3.88;;;1.00;;
55368;SDS011;41247;49.736;8.752;2023-12-22T22:28:50;3.33;;;0.90;;
55368;SDS011;41247;49.736;8.752;2023-12-22T22:32:31;2.05;;;0.70;;
55368;SDS011;41247;49.736;8.752;2023-12-22T22:36:12;3.95;;;1.02;;
55368;SDS011;41247;49.736;8.752;2023-12-22T22:39:52;2.22;;;1.08;;
55368;SDS011;41247;49.736;8.752;2023-12-22T22:43:33;4.15;;;1.10;;
55368;SDS011;41247;49.736;8.752;2023-12-22T22:47:14;4.10;;;1.20;;
55368;SDS011;41247;49.736;8.752;2023-12-22T22:50:54;6.28;;;1.30;;
55368;SDS011;41247;49.736;8.752;2023-12-22T22:54:35;2.88;;;1.05;;
55368;SDS011;41247;49.736;8.752;2023-12-22T22:58:16;4.78;;;1.08;;
55368;SDS011;41247;49.736;8.752;2023-12-22T23:01:56;5.70;;;1.30;;
55368;SDS011;41247;49.736;8.752;2023-12-22T23:05:37;2.30;;;0.80;;
55368;SDS011;41247;49.736;8.752;2023-12-22T23:09:18;4.97;;;0.90;;
55368;SDS011;41247;49.736;8.752;2023-12-22T23:12:58;2.20;;;0.95;;
55368;SDS011;41247;49.736;8.752;2023-12-22T23:16:39;5.05;;;0.98;;
55368;SDS011;41247;49.736;8.752;2023-12-22T23:20:19;5.97;;;0.85;;
55368;SDS011;41247;49.736;8.752;2023-12-22T23:24:00;2.42;;;0.75;;
55368;SDS011;41247;49.736;8.752;2023-12-22T23:27:40;2.92;;;0.70;;
55368;SDS011;41247;49.736;8.752;2023-12-22T23:31:21;6.90;;;0.90;;
55368;SDS011;41247;49.736;8.752;2023-12-22T23:35:02;2.60;;;0.90;;
55368;SDS011;41247;49.736;8.752;2023-12-22T23:38:42;3.17;;;0.95;;
55368;SDS011;41247;49.736;8.752;2023-12-22T23:42:23;3.70;;;0.80;;
55368;SDS011;41247;49.736;8.752;2023-12-22T23:46:03;6.03;;;1.05;;
55368;SDS011;41247;49.736;8.752;2023-12-22T23:49:44;5.57;;;1.30;;
55368;SDS011;41247;49.736;8.752;2023-12-22T23:53:24;2.25;;;1.00;;
55368;SDS011;41247;49.736;8.752;2023-12-22T23:57:05;4.25;;;1.10;;
